Terminal Aerodrome Forecast
Issued by NWS

Home | Current Version | Previous Version | Text Only | Print | Product List | Glossary On
Versions: 1 2 3 4 5 6 7 8 9 10 11 12 13 14 15 16 17 18 19 20 21 22 23 24 25 26 27 28
000
FTUS45 KBOU 261402 AAB
TAFAPA
TAF AMD
KAPA 261402Z 2614/2712 34006KT P6SM FEW025 BKN040 BKN100
      TEMPO 2614/2616 BKN025
     FM261700 02007KT P6SM VCSH BKN035 BKN060 OVC080
     FM261900 05010KT P6SM VCTS BKN050CB BKN070
      TEMPO 2620/2624 VRB15G25KT 5SM TSRA BKN030CB
     FM270000 11010KT P6SM VCTS SCT050CB BKN090
     FM270300 16010KT P6SM SCT060 BKN090=

USA.gov is the U.S. government's official web portal to all federal, state and local government web resources and services.